createdAt,value
2018-03-21T00:01:54.123Z,5.97
2018-03-21T00:04:22.552Z,5.10
2018-03-21T00:06:50.967Z,6.47
2018-03-21T00:09:19.280Z,3.23
2018-03-21T00:11:47.642Z,4.40
2018-03-21T00:14:15.969Z,8.30
2018-03-21T00:16:44.359Z,4.67
2018-03-21T00:19:12.725Z,12.13
2018-03-21T00:21:41.079Z,8.73
2018-03-21T00:24:10.146Z,4.13
2018-03-21T00:26:38.447Z,2.23
2018-03-21T00:29:06.819Z,2.23
2018-03-21T00:31:35.116Z,2.47
2018-03-21T00:34:03.511Z,1.03
2018-03-21T00:36:32.097Z,2.30
2018-03-21T00:39:00.521Z,5.17
2018-03-21T00:41:28.879Z,2.93
2018-03-21T00:43:57.252Z,1.30
2018-03-21T00:46:25.714Z,1.80
2018-03-21T00:48:54.192Z,2.50
2018-03-21T00:51:22.586Z,3.70
2018-03-21T00:53:50.956Z,1.30
2018-03-21T00:56:19.321Z,1.43
2018-03-21T00:58:47.648Z,6.30
2018-03-21T01:01:15.950Z,6.60
2018-03-21T01:03:44.273Z,4.53
2018-03-21T01:06:13.365Z,1.83
2018-03-21T01:08:42.445Z,1.43
2018-03-21T01:11:10.743Z,1.13
2018-03-21T01:13:39.141Z,2.97
2018-03-21T01:16:07.458Z,2.53
2018-03-21T01:18:36.554Z,2.93
2018-03-21T01:21:05.719Z,1.50
2018-03-21T01:23:34.028Z,2.20
2018-03-21T01:26:02.437Z,5.77
2018-03-21T01:28:31.675Z,1.77
2018-03-21T01:31:00.811Z,2.83
2018-03-21T01:33:29.222Z,3.57
2018-03-21T01:35:57.695Z,8.60
2018-03-21T01:38:26.142Z,3.70
2018-03-21T01:40:54.703Z,5.30
2018-03-21T01:43:23.223Z,6.00
2018-03-21T01:45:52.416Z,1.67
2018-03-21T01:48:20.772Z,7.53
2018-03-21T01:50:49.079Z,5.40
2018-03-21T01:53:18.144Z,2.63
2018-03-21T01:55:47.284Z,1.37
2018-03-21T01:58:15.586Z,2.53
2018-03-21T02:00:44.347Z,2.93
2018-03-21T02:03:12.787Z,5.60
2018-03-21T02:05:41.099Z,1.60
2018-03-21T02:08:09.457Z,1.63
2018-03-21T02:10:37.770Z,3.13
2018-03-21T02:13:06.120Z,5.13
2018-03-21T02:15:34.427Z,4.20
2018-03-21T02:18:02.846Z,6.40
2018-03-21T02:20:31.288Z,2.40
2018-03-21T02:22:59.639Z,3.60
2018-03-21T02:25:28.071Z,2.43
2018-03-21T02:27:56.482Z,3.53
2018-03-21T02:30:25.077Z,8.00
2018-03-21T02:32:53.533Z,9.70
2018-03-21T02:35:22.016Z,3.27
2018-03-21T02:37:50.418Z,5.10
2018-03-21T02:40:18.736Z,3.13
2018-03-21T02:42:47.804Z,4.13
2018-03-21T02:45:16.901Z,4.67
2018-03-21T02:47:45.211Z,9.00
2018-03-21T02:50:14.356Z,4.10
2018-03-21T02:52:42.707Z,7.80
2018-03-21T02:55:11.820Z,5.40
2018-03-21T02:57:40.117Z,4.00
2018-03-21T03:00:08.431Z,4.13
2018-03-21T03:02:36.816Z,2.93
2018-03-21T03:05:05.896Z,4.73
2018-03-21T03:07:34.200Z,6.50
2018-03-21T03:10:03.311Z,6.10
2018-03-21T03:12:31.726Z,2.70
2018-03-21T03:15:01.823Z,1.90
2018-03-21T03:17:30.255Z,1.83
2018-03-21T03:19:58.679Z,1.53
2018-03-21T03:22:27.115Z,1.30
2018-03-21T03:24:55.698Z,1.70
2018-03-21T03:27:24.228Z,7.87
2018-03-21T03:29:52.729Z,0.90
2018-03-21T03:32:21.074Z,1.57
2018-03-21T03:34:49.435Z,1.50
2018-03-21T03:37:17.739Z,3.63
2018-03-21T03:39:46.271Z,1.37
2018-03-21T03:42:15.489Z,0.80
2018-03-21T03:44:43.838Z,1.13
2018-03-21T03:47:12.148Z,1.43
2018-03-21T03:49:40.476Z,1.97
2018-03-21T03:52:08.899Z,8.93
2018-03-21T03:54:37.215Z,1.23
2018-03-21T03:57:05.542Z,6.90
2018-03-21T03:59:33.921Z,1.53
2018-03-21T04:02:03.030Z,4.93
2018-03-21T04:04:32.195Z,1.90
2018-03-21T04:07:00.685Z,5.70
2018-03-21T04:09:29.034Z,1.30
2018-03-21T04:11:57.602Z,1.40
2018-03-21T04:14:25.978Z,1.77
2018-03-21T04:16:54.614Z,4.67
2018-03-21T04:19:23.070Z,2.43
2018-03-21T04:21:51.411Z,1.23
2018-03-21T04:24:19.743Z,1.40
2018-03-21T04:26:48.048Z,2.70
2018-03-21T04:29:16.372Z,1.73
2018-03-21T04:31:45.456Z,2.73
2018-03-21T04:34:13.771Z,1.67
2018-03-21T04:36:42.128Z,2.30
2018-03-21T04:39:10.425Z,2.50
2018-03-21T04:41:38.722Z,0.90
2018-03-21T04:44:07.096Z,2.73
2018-03-21T04:46:35.458Z,6.13
2018-03-21T04:49:03.764Z,1.33
2018-03-21T04:51:32.288Z,7.50
2018-03-21T04:54:00.665Z,5.33
2018-03-21T04:56:29.118Z,0.70
2018-03-21T04:58:57.656Z,6.93
2018-03-21T05:01:26.512Z,0.90
2018-03-21T05:03:54.995Z,1.33
2018-03-21T05:06:23.470Z,0.80
2018-03-21T05:08:52.743Z,0.97
2018-03-21T05:11:22.028Z,1.27
2018-03-21T05:13:50.489Z,6.50
2018-03-21T05:16:18.850Z,3.10
2018-03-21T05:18:47.368Z,1.13
2018-03-21T05:21:16.507Z,1.00
2018-03-21T05:23:44.866Z,4.70
2018-03-21T05:26:13.214Z,0.80
2018-03-21T05:28:41.532Z,1.40
2018-03-21T05:31:09.894Z,5.10
2018-03-21T05:33:38.311Z,1.60
2018-03-21T05:36:06.703Z,5.17
2018-03-21T05:38:35.139Z,8.40
2018-03-21T05:41:04.265Z,3.13
2018-03-21T05:43:32.647Z,3.33
2018-03-21T05:46:01.113Z,2.40
2018-03-21T05:48:29.596Z,4.10
2018-03-21T05:50:57.985Z,5.90
2018-03-21T05:53:27.409Z,6.10
2018-03-21T05:55:55.943Z,14.50
2018-03-21T05:58:24.392Z,3.03
2018-03-21T06:00:53.828Z,2.30
2018-03-21T06:03:22.448Z,7.63
2018-03-21T06:05:50.839Z,6.43
2018-03-21T06:08:19.945Z,8.50
2018-03-21T06:10:49.052Z,3.00
2018-03-21T06:13:18.299Z,4.00
2018-03-21T06:15:46.740Z,2.30
2018-03-21T06:18:15.220Z,2.10
2018-03-21T06:20:43.665Z,1.77
2018-03-21T06:23:12.003Z,2.00
2018-03-21T06:25:40.417Z,3.33
2018-03-21T06:28:09.520Z,1.80
2018-03-21T06:30:38.619Z,3.43
2018-03-21T06:33:06.959Z,3.17
2018-03-21T06:35:35.316Z,2.53
2018-03-21T06:38:03.696Z,2.80
2018-03-21T06:40:32.036Z,2.20
2018-03-21T06:43:00.551Z,3.10
2018-03-21T06:45:28.923Z,3.27
2018-03-21T06:47:57.433Z,2.30
2018-03-21T06:50:25.884Z,3.00
2018-03-21T06:52:55.410Z,3.30
2018-03-21T06:55:23.888Z,6.00
2018-03-21T06:57:52.315Z,2.53
2018-03-21T07:00:20.656Z,8.43
2018-03-21T07:02:49.840Z,7.50
2018-03-21T07:05:18.189Z,4.37
2018-03-21T07:07:47.336Z,3.33
2018-03-21T07:10:15.780Z,4.73
2018-03-21T07:12:45.105Z,10.83
2018-03-21T07:15:25.369Z,4.30
2018-03-21T07:17:54.819Z,8.30
2018-03-21T07:20:24.011Z,7.90
2018-03-21T07:22:53.260Z,5.30
2018-03-21T07:25:21.779Z,7.30
2018-03-21T07:27:50.167Z,15.77
2018-03-21T07:30:18.582Z,4.13
2018-03-21T07:32:46.947Z,6.53
2018-03-21T07:35:15.300Z,8.80
2018-03-21T07:37:43.636Z,4.27
2018-03-21T07:40:12.040Z,4.43
2018-03-21T07:42:40.435Z,3.77
2018-03-21T07:45:08.893Z,4.33
2018-03-21T07:47:38.051Z,3.23
2018-03-21T07:50:07.213Z,2.20
2018-03-21T07:52:36.311Z,5.63
2018-03-21T07:55:05.488Z,3.60
2018-03-21T07:57:35.550Z,7.73
2018-03-21T08:00:04.066Z,3.60
2018-03-21T08:02:33.312Z,3.47
2018-03-21T08:05:01.705Z,4.87
2018-03-21T08:07:30.143Z,7.90
2018-03-21T08:09:59.401Z,1.60
2018-03-21T08:12:28.178Z,2.67
2018-03-21T08:14:57.517Z,2.60
2018-03-21T08:17:26.932Z,6.73
2018-03-21T08:19:56.707Z,1.40
2018-03-21T08:22:25.379Z,8.80
2018-03-21T08:24:53.986Z,6.63
2018-03-21T08:27:23.294Z,2.50
2018-03-21T08:29:51.668Z,3.80
2018-03-21T08:32:20.084Z,10.20
2018-03-21T08:34:49.273Z,3.13
2018-03-21T08:37:17.630Z,2.10
2018-03-21T08:39:45.969Z,1.63
2018-03-21T08:42:14.318Z,1.93
2018-03-21T08:44:42.797Z,6.80
2018-03-21T08:47:11.128Z,6.20
2018-03-21T08:49:39.495Z,2.57
2018-03-21T08:52:07.822Z,1.50
2018-03-21T08:54:36.920Z,6.13
2018-03-21T08:57:05.375Z,3.00
2018-03-21T08:59:33.965Z,4.73
2018-03-21T09:02:02.355Z,5.73
2018-03-21T09:04:30.734Z,4.47
2018-03-21T09:06:59.188Z,5.60
2018-03-21T09:09:28.496Z,2.80
2018-03-21T09:11:56.911Z,2.70
2018-03-21T09:14:25.403Z,3.00
2018-03-21T09:16:53.809Z,2.60
2018-03-21T09:19:22.302Z,10.20
2018-03-21T09:21:50.689Z,5.30
2018-03-21T09:24:19.776Z,2.17
2018-03-21T09:26:48.093Z,3.83
2018-03-21T09:29:16.425Z,3.70
2018-03-21T09:31:44.762Z,6.00
2018-03-21T09:34:13.897Z,2.33
2018-03-21T09:36:42.231Z,5.20
2018-03-21T09:39:10.583Z,7.40
2018-03-21T09:41:38.902Z,2.13
2018-03-21T09:44:07.277Z,2.07
2018-03-21T09:46:35.690Z,27.93
2018-03-21T09:49:04.013Z,3.33
2018-03-21T09:51:33.124Z,3.70
2018-03-21T09:54:02.240Z,3.33
2018-03-21T09:56:31.383Z,2.83
2018-03-21T09:58:59.989Z,3.07
2018-03-21T10:01:28.404Z,4.33
2018-03-21T10:03:57.679Z,4.40
2018-03-21T10:06:26.149Z,3.20
2018-03-21T10:08:54.716Z,1.70
2018-03-21T10:11:24.133Z,5.23
2018-03-21T10:13:53.335Z,5.43
2018-03-21T10:16:22.539Z,2.77
2018-03-21T10:18:51.103Z,9.73
2018-03-21T10:21:19.451Z,4.80
2018-03-21T10:23:47.822Z,5.30
2018-03-21T10:26:16.151Z,1.90
2018-03-21T10:28:45.349Z,2.23
2018-03-21T10:31:14.523Z,6.00
2018-03-21T10:33:42.878Z,3.90
2018-03-21T10:36:11.277Z,10.03
2018-03-21T10:38:39.614Z,9.13
2018-03-21T10:41:07.970Z,6.47
2018-03-21T10:43:36.301Z,2.00
2018-03-21T10:46:04.639Z,5.27
2018-03-21T10:48:32.983Z,3.30
2018-03-21T10:51:01.542Z,4.97
2018-03-21T10:53:29.922Z,2.60
2018-03-21T10:55:58.300Z,4.90
2018-03-21T10:58:26.920Z,3.83
2018-03-21T11:00:56.144Z,2.50
2018-03-21T11:03:24.568Z,7.30
2018-03-21T11:05:53.842Z,6.00
2018-03-21T11:08:22.281Z,4.23
2018-03-21T11:10:51.468Z,5.23
2018-03-21T11:13:19.803Z,5.60
2018-03-21T11:15:48.907Z,2.83
2018-03-21T11:18:17.997Z,4.63
2018-03-21T11:20:46.448Z,3.47
2018-03-21T11:23:14.776Z,1.77
2018-03-21T11:25:43.111Z,2.93
2018-03-21T11:28:11.519Z,3.07
2018-03-21T11:30:40.110Z,4.30
2018-03-21T11:33:08.503Z,4.00
2018-03-21T11:35:36.952Z,2.30
2018-03-21T11:38:05.295Z,21.00
2018-03-21T11:40:33.592Z,1.77
2018-03-21T11:43:02.009Z,4.13
2018-03-21T11:45:30.329Z,3.73
2018-03-21T11:47:58.798Z,2.23
2018-03-21T11:50:27.263Z,11.30
2018-03-21T11:52:55.832Z,3.00
2018-03-21T11:55:24.581Z,7.13
2018-03-21T11:57:53.679Z,9.07
2018-03-21T12:00:22.019Z,4.30
2018-03-21T12:02:51.152Z,3.60
2018-03-21T12:05:19.592Z,4.40
2018-03-21T12:07:47.915Z,1.20
2018-03-21T12:10:16.255Z,1.60
2018-03-21T12:12:44.660Z,8.27
2018-03-21T12:15:12.992Z,3.73
2018-03-21T12:17:41.382Z,4.03
2018-03-21T12:20:10.489Z,3.60
2018-03-21T12:22:39.639Z,3.83
2018-03-21T12:25:08.799Z,7.73
2018-03-21T12:27:37.104Z,2.93
2018-03-21T12:30:05.434Z,5.07
2018-03-21T12:32:34.613Z,2.50
2018-03-21T12:35:03.059Z,3.37
2018-03-21T12:37:31.476Z,1.37
2018-03-21T12:40:00.649Z,3.87
2018-03-21T12:42:29.114Z,3.43
2018-03-21T12:44:57.502Z,3.23
2018-03-21T12:47:25.946Z,2.73
2018-03-21T12:49:55.317Z,2.90
2018-03-21T12:52:24.894Z,4.20
2018-03-21T12:54:53.376Z,1.00
2018-03-21T12:57:22.498Z,0.87
2018-03-21T12:59:50.914Z,1.70
2018-03-21T13:02:19.348Z,0.90
2018-03-21T13:04:47.740Z,4.30
2018-03-21T13:07:16.105Z,1.90
2018-03-21T13:09:44.430Z,3.20
2018-03-21T13:12:12.786Z,1.80
2018-03-21T13:14:41.107Z,3.57
2018-03-21T13:17:09.493Z,8.33
2018-03-21T13:19:37.836Z,6.27
2018-03-21T13:22:06.936Z,3.90
2018-03-21T13:24:36.128Z,2.47
2018-03-21T13:27:04.458Z,1.90
2018-03-21T13:29:32.977Z,8.90
2018-03-21T13:32:01.407Z,1.27
2018-03-21T13:34:29.833Z,5.23
2018-03-21T13:36:58.263Z,28.00
2018-03-21T13:39:26.858Z,5.65
2018-03-21T13:41:55.334Z,11.00
2018-03-21T13:44:23.897Z,3.13
2018-03-21T13:46:54.042Z,2.47
2018-03-21T13:49:22.415Z,9.93
2018-03-21T13:51:50.833Z,9.93
2018-03-21T13:54:19.230Z,7.40
2018-03-21T13:56:47.584Z,5.40
2018-03-21T13:59:15.919Z,4.63
2018-03-21T14:01:44.252Z,8.37
2018-03-21T14:04:12.579Z,12.30
2018-03-21T14:06:41.721Z,15.47
2018-03-21T14:09:10.052Z,12.20
2018-03-21T14:11:38.401Z,7.63
2018-03-21T14:14:06.749Z,5.78
2018-03-21T14:16:35.073Z,5.67
2018-03-21T14:19:03.521Z,3.80
2018-03-21T14:21:31.982Z,6.10
2018-03-21T14:24:00.357Z,9.43
2018-03-21T14:26:28.795Z,10.57
2018-03-21T14:28:57.231Z,9.17
2018-03-21T14:31:25.677Z,8.00
2018-03-21T14:33:54.096Z,13.30
2018-03-21T14:36:23.845Z,17.07
2018-03-21T14:38:52.526Z,17.77
2018-03-21T14:41:21.643Z,20.10
2018-03-21T14:43:50.001Z,24.13
2018-03-21T14:46:18.337Z,23.87
2018-03-21T14:48:46.748Z,23.97
2018-03-21T14:51:15.947Z,25.97
2018-03-21T14:53:44.389Z,27.27
2018-03-21T14:56:12.748Z,20.73
2018-03-21T14:58:41.050Z,24.33
2018-03-21T15:01:10.320Z,25.77
2018-03-21T15:03:38.668Z,22.43
2018-03-21T15:06:07.771Z,25.87
2018-03-21T15:08:36.118Z,26.63
2018-03-21T15:11:04.541Z,23.50
2018-03-21T15:13:32.962Z,22.63
2018-03-21T15:16:01.391Z,36.57
2018-03-21T15:18:29.828Z,39.90
2018-03-21T15:20:58.297Z,38.60
2018-03-21T15:23:27.651Z,42.13
2018-03-21T15:25:56.877Z,33.03
2018-03-21T15:28:25.443Z,25.07
2018-03-21T15:30:54.120Z,24.60
2018-03-21T15:33:23.535Z,27.03
2018-03-21T15:35:52.096Z,19.60
2018-03-21T15:38:20.605Z,24.30
2018-03-21T15:40:49.068Z,23.43
2018-03-21T15:43:17.491Z,18.73
2018-03-21T15:45:45.896Z,20.60
2018-03-21T15:48:14.288Z,20.83
2018-03-21T15:50:42.624Z,21.70
2018-03-21T15:53:10.963Z,16.33
2018-03-21T15:55:39.648Z,19.90
2018-03-21T15:58:08.717Z,15.73
2018-03-21T16:00:37.019Z,11.10
2018-03-21T16:03:05.327Z,18.37
2018-03-21T16:05:34.575Z,14.07
2018-03-21T16:08:03.757Z,15.87
2018-03-21T16:10:32.820Z,20.93
2018-03-21T16:13:01.205Z,18.63
2018-03-21T16:15:29.597Z,18.87
2018-03-21T16:17:57.999Z,21.33
2018-03-21T16:20:26.549Z,23.20
2018-03-21T16:22:55.220Z,20.13
2018-03-21T16:25:24.974Z,19.90
2018-03-21T16:27:53.735Z,19.20
2018-03-21T16:30:22.989Z,19.30
2018-03-21T16:32:51.501Z,27.60
2018-03-21T16:35:19.883Z,32.20
2018-03-21T16:37:48.385Z,27.90
2018-03-21T16:40:16.829Z,31.80
2018-03-21T16:42:45.186Z,29.80
2018-03-21T16:45:13.908Z,25.00
2018-03-21T16:47:42.250Z,25.30
2018-03-21T16:50:11.653Z,31.43
2018-03-21T16:52:40.016Z,23.20
2018-03-21T16:55:09.620Z,23.00
2018-03-21T16:57:38.086Z,25.33
2018-03-21T17:00:07.463Z,29.80
2018-03-21T17:02:36.710Z,25.33
2018-03-21T17:05:05.200Z,29.70
2018-03-21T17:07:33.980Z,24.73
2018-03-21T17:10:02.774Z,28.63
2018-03-21T17:12:31.244Z,31.17
2018-03-21T17:15:00.559Z,24.33
2018-03-21T17:17:29.196Z,24.33
2018-03-21T17:19:58.111Z,22.73
2018-03-21T17:22:26.794Z,24.87
2018-03-21T17:25:01.671Z,38.73
2018-03-21T17:27:32.433Z,37.13
2018-03-21T17:30:00.937Z,22.50
2018-03-21T17:32:29.358Z,21.93
2018-03-21T17:34:58.771Z,20.80
2018-03-21T17:37:27.499Z,27.10
2018-03-21T17:39:56.938Z,25.33
2018-03-21T17:42:26.374Z,25.90
2018-03-21T17:44:55.675Z,25.97
2018-03-21T17:47:24.172Z,23.50
2018-03-21T17:49:54.085Z,19.33
2018-03-21T17:52:23.405Z,18.20
2018-03-21T17:54:52.028Z,25.37
2018-03-21T17:57:20.404Z,30.33
2018-03-21T17:59:48.708Z,23.07
2018-03-21T18:02:17.020Z,27.30
2018-03-21T18:04:46.140Z,26.20
2018-03-21T18:07:15.335Z,26.77
2018-03-21T18:09:43.650Z,27.40
2018-03-21T18:12:11.977Z,23.40
2018-03-21T18:14:40.288Z,29.80
2018-03-21T18:20:05.799Z,25.17
2018-03-21T18:22:34.170Z,30.83
2018-03-21T18:25:03.456Z,24.27
2018-03-21T18:27:31.900Z,23.30
2018-03-21T18:30:00.519Z,25.73
2018-03-21T18:32:29.730Z,28.00
2018-03-21T18:34:58.318Z,39.07
2018-03-21T18:37:27.711Z,28.20
2018-03-21T18:39:57.268Z,30.40
2018-03-21T18:42:25.858Z,27.53
2018-03-21T18:44:55.277Z,28.77
2018-03-21T18:47:23.985Z,37.63
2018-03-21T18:49:52.519Z,23.70
2018-03-21T18:52:21.121Z,26.43
2018-03-21T18:54:50.200Z,25.93
2018-03-21T18:57:18.604Z,35.80
2018-03-21T18:59:46.910Z,27.13
2018-03-21T19:02:16.000Z,25.67
2018-03-21T19:04:45.147Z,38.83
2018-03-21T19:07:13.831Z,29.83
2018-03-21T19:09:42.162Z,34.63
2018-03-21T19:12:10.481Z,28.73
2018-03-21T19:14:38.827Z,38.20
2018-03-21T19:17:07.208Z,28.87
2018-03-21T19:19:35.852Z,31.50
2018-03-21T19:22:04.449Z,33.23
2018-03-21T19:24:33.145Z,40.57
2018-03-21T19:27:04.073Z,35.70
2018-03-21T19:29:32.663Z,27.30
2018-03-21T19:32:01.132Z,34.67
2018-03-21T19:34:29.611Z,41.77
2018-03-21T19:36:58.988Z,42.17
2018-03-21T19:39:27.493Z,48.27
2018-03-21T19:41:56.015Z,35.03
2018-03-21T19:44:24.576Z,31.40
2018-03-21T19:46:53.117Z,28.77
2018-03-21T19:49:21.595Z,26.57
2018-03-21T19:51:49.954Z,32.73
2018-03-21T19:54:18.353Z,24.90
2018-03-21T19:56:46.918Z,30.13
2018-03-21T19:59:15.344Z,33.23
2018-03-21T20:01:43.692Z,29.00
2018-03-21T20:04:12.047Z,31.00
2018-03-21T20:06:40.426Z,24.23
2018-03-21T20:09:08.951Z,26.30
2018-03-21T20:11:37.319Z,35.53
2018-03-21T20:14:06.466Z,26.40
2018-03-21T20:16:35.582Z,26.57
2018-03-21T20:19:06.702Z,29.23
2018-03-21T20:21:35.208Z,29.93
2018-03-21T20:24:03.607Z,27.03
2018-03-21T20:26:31.932Z,34.60
2018-03-21T20:29:00.404Z,26.00
2018-03-21T20:31:29.562Z,37.10
2018-03-21T20:33:58.076Z,32.87
2018-03-21T20:36:28.283Z,36.00
2018-03-21T20:38:56.743Z,29.40
2018-03-21T20:41:25.337Z,22.20
2018-03-21T20:43:53.934Z,24.43
2018-03-21T20:46:22.689Z,24.57
2018-03-21T20:48:51.836Z,29.90
2018-03-21T20:51:20.994Z,28.53
2018-03-21T20:53:49.356Z,48.13
2018-03-21T20:56:17.713Z,29.00
2018-03-21T20:58:46.110Z,24.90
2018-03-21T21:01:15.344Z,29.97
2018-03-21T21:03:43.781Z,27.13
2018-03-21T21:06:12.170Z,32.50
2018-03-21T21:08:40.528Z,25.43
2018-03-21T21:11:08.869Z,28.60
2018-03-21T21:13:37.297Z,26.60
2018-03-21T21:16:06.563Z,25.60
2018-03-21T21:18:34.945Z,37.53
2018-03-21T21:21:03.474Z,26.53
2018-03-21T21:23:31.885Z,35.30
2018-03-21T21:26:01.125Z,33.87
2018-03-21T21:28:30.270Z,26.00
2018-03-21T21:30:58.659Z,34.40
2018-03-21T21:33:27.161Z,32.03
2018-03-21T21:35:55.651Z,32.53
2018-03-21T21:38:24.658Z,28.23
2018-03-21T21:40:53.159Z,40.27
2018-03-21T21:43:22.326Z,38.23
2018-03-21T21:45:50.708Z,37.63
2018-03-21T21:48:19.076Z,28.30
2018-03-21T21:50:47.525Z,27.80
2018-03-21T21:53:15.997Z,26.20
2018-03-21T21:55:44.374Z,27.93
2018-03-21T21:58:13.500Z,25.87
2018-03-21T22:00:41.863Z,31.60
2018-03-21T22:03:11.040Z,30.93
2018-03-21T22:05:39.378Z,36.93
2018-03-21T22:08:07.722Z,31.90
2018-03-21T22:10:36.076Z,29.00
2018-03-21T22:13:04.484Z,33.27
2018-03-21T22:15:32.874Z,29.13
2018-03-21T22:18:01.240Z,29.90
2018-03-21T22:20:29.700Z,32.33
2018-03-21T22:22:58.135Z,33.60
2018-03-21T22:25:26.642Z,34.90
2018-03-21T22:27:55.120Z,35.07
2018-03-21T22:30:23.581Z,29.43
2018-03-21T22:32:52.715Z,36.20
2018-03-21T22:35:21.107Z,31.23
2018-03-21T22:37:49.542Z,31.53
2018-03-21T22:40:17.991Z,33.50
2018-03-21T22:42:47.165Z,29.67
2018-03-21T22:45:15.563Z,34.63
2018-03-21T22:47:44.067Z,32.47
2018-03-21T22:50:12.400Z,35.97
2018-03-21T22:52:40.846Z,34.13
2018-03-21T22:55:09.233Z,40.03
2018-03-21T22:57:37.586Z,34.80
2018-03-21T23:00:05.939Z,31.50
2018-03-21T23:02:35.083Z,36.00
2018-03-21T23:05:03.444Z,43.23
2018-03-21T23:07:32.634Z,40.33
2018-03-21T23:10:01.406Z,26.40
2018-03-21T23:12:29.830Z,28.47
2018-03-21T23:14:58.301Z,32.80
2018-03-21T23:17:26.872Z,30.80
2018-03-21T23:19:55.451Z,33.23
2018-03-21T23:22:23.986Z,43.37
2018-03-21T23:24:52.449Z,35.57
2018-03-21T23:27:20.892Z,30.73
2018-03-21T23:29:49.318Z,34.37
2018-03-21T23:32:18.483Z,34.90
2018-03-21T23:34:46.988Z,39.97
2018-03-21T23:37:15.380Z,37.40
2018-03-21T23:39:43.746Z,38.40
2018-03-21T23:42:12.098Z,39.90
2018-03-21T23:44:40.496Z,33.73
2018-03-21T23:47:09.016Z,46.27
2018-03-21T23:49:37.407Z,31.23
2018-03-21T23:52:05.762Z,36.90
2018-03-21T23:54:34.929Z,37.90
2018-03-21T23:57:04.050Z,39.83
2018-03-21T23:59:32.480Z,42.23
